createdAt,value
2018-12-25T00:00:05.220Z,83.10
2018-12-25T00:01:05.223Z,82.51
2018-12-25T00:02:05.194Z,82.72
2018-12-25T00:03:05.181Z,82.93
2018-12-25T00:04:05.173Z,83.00
2018-12-25T00:05:05.161Z,82.31
2018-12-25T00:06:05.167Z,82.72
2018-12-25T00:07:05.143Z,82.58
2018-12-25T00:08:05.128Z,82.48
2018-12-25T00:09:05.119Z,82.68
2018-12-25T00:10:05.105Z,81.54
2018-12-25T00:11:05.112Z,81.34
2018-12-25T00:12:05.082Z,82.10
2018-12-25T00:13:05.071Z,81.65
2018-12-25T00:14:06.173Z,81.65
2018-12-25T00:15:05.050Z,81.54
2018-12-25T00:16:13.982Z,81.44
2018-12-25T00:17:05.024Z,80.85
2018-12-25T00:18:05.014Z,81.54
2018-12-25T00:19:06.333Z,81.75
2018-12-25T00:20:04.993Z,81.02
2018-12-25T00:21:04.982Z,81.13
2018-12-25T00:22:04.990Z,80.61
2018-12-25T00:23:04.959Z,81.23
2018-12-25T00:24:04.947Z,80.82
2018-12-25T00:25:04.936Z,80.71
2018-12-25T00:26:04.925Z,80.82
2018-12-25T00:27:04.931Z,80.82
2018-12-25T00:28:04.902Z,81.44
2018-12-25T00:29:04.891Z,81.65
2018-12-25T00:30:04.881Z,81.44
2018-12-25T00:31:04.871Z,81.23
2018-12-25T00:32:04.875Z,80.30
2018-12-25T00:33:04.844Z,80.71
2018-12-25T00:34:04.837Z,81.13
2018-12-25T00:35:04.824Z,81.13
2018-12-25T00:36:04.816Z,80.92
2018-12-25T00:37:04.821Z,81.23
2018-12-25T00:38:04.793Z,81.13
2018-12-25T00:39:04.778Z,80.92
2018-12-25T00:40:04.766Z,79.68
2018-12-25T00:41:04.755Z,79.58
2018-12-25T00:42:04.766Z,80.30
2018-12-25T00:43:04.742Z,79.68
2018-12-25T00:44:04.720Z,80.19
2018-12-25T00:45:04.711Z,81.13
2018-12-25T00:46:04.699Z,80.61
2018-12-25T00:47:04.687Z,81.34
2018-12-25T00:48:04.694Z,80.71
2018-12-25T00:49:04.667Z,80.30
2018-12-25T00:50:04.659Z,80.09
2018-12-25T00:51:04.642Z,80.71
2018-12-25T00:52:04.631Z,79.88
2018-12-25T00:53:04.642Z,79.47
2018-12-25T00:54:04.609Z,79.74
2018-12-25T00:55:04.599Z,80.09
2018-12-25T00:56:04.609Z,80.19
2018-12-25T00:57:04.576Z,80.78
2018-12-25T00:58:04.594Z,81.13
2018-12-25T00:59:04.553Z,81.65
2018-12-25T01:00:04.544Z,80.82
2018-12-25T01:01:04.530Z,80.82
2018-12-25T01:02:04.543Z,81.13
2018-12-25T01:03:04.512Z,80.51
2018-12-25T01:04:04.496Z,80.92
2018-12-25T01:05:04.497Z,80.51
2018-12-25T01:06:04.476Z,80.71
2018-12-25T01:07:04.463Z,80.82
2018-12-25T01:08:04.495Z,80.19
2018-12-25T01:09:04.450Z,80.92
2018-12-25T01:10:04.433Z,81.02
2018-12-25T01:11:04.420Z,81.13
2018-12-25T01:12:04.411Z,80.92
2018-12-25T01:13:04.416Z,80.51
2018-12-25T01:14:04.386Z,80.71
2018-12-25T01:15:04.374Z,80.71
2018-12-25T01:16:04.363Z,80.19
2018-12-25T01:17:04.370Z,80.61
2018-12-25T01:18:04.340Z,80.09
2018-12-25T01:19:04.334Z,81.09
2018-12-25T01:20:04.321Z,80.71
2018-12-25T01:21:04.310Z,80.92
2018-12-25T01:22:04.336Z,80.19
2018-12-25T01:23:04.283Z,80.92
2018-12-25T01:24:04.274Z,80.82
2018-12-25T01:25:04.262Z,81.13
2018-12-25T01:26:04.252Z,79.88
2018-12-25T01:27:04.242Z,79.78
2018-12-25T01:28:04.247Z,79.88
2018-12-25T01:29:04.218Z,79.47
2018-12-25T01:30:04.206Z,80.61
2018-12-25T01:31:04.193Z,80.92
2018-12-25T01:32:04.183Z,80.51
2018-12-25T01:33:04.220Z,80.82
2018-12-25T01:34:04.161Z,80.71
2018-12-25T01:35:04.150Z,80.71
2018-12-25T01:36:04.140Z,81.13
2018-12-25T01:37:04.128Z,80.47
2018-12-25T01:38:04.136Z,81.23
2018-12-25T01:39:04.105Z,80.71
2018-12-25T01:40:04.093Z,80.92
2018-12-25T01:41:04.083Z,81.34
2018-12-25T01:42:04.073Z,80.92
2018-12-25T01:43:04.077Z,80.82
2018-12-25T01:44:04.048Z,80.57
2018-12-25T01:45:04.039Z,80.92
2018-12-25T01:46:04.025Z,80.92
2018-12-25T01:47:04.016Z,81.13
2018-12-25T01:48:04.024Z,80.82
2018-12-25T01:49:04.026Z,80.92
2018-12-25T01:50:03.979Z,81.02
2018-12-25T01:51:03.970Z,80.61
2018-12-25T01:52:03.957Z,80.51
2018-12-25T01:53:03.945Z,80.82
2018-12-25T01:54:03.955Z,80.92
2018-12-25T01:55:03.923Z,80.71
2018-12-25T12:28:14.952Z,67.85
2018-12-25T12:29:14.923Z,67.71
2018-12-25T12:30:14.914Z,67.17
2018-12-25T12:31:14.903Z,66.66
2018-12-25T12:32:14.889Z,65.80
2018-12-25T12:33:15.616Z,64.95
2018-12-25T12:34:14.866Z,65.09
2018-12-25T12:35:14.871Z,65.86
2018-12-25T12:36:14.850Z,66.82
2018-12-25T12:37:14.830Z,67.78
2018-12-25T12:38:14.821Z,67.88
2018-12-25T12:39:14.829Z,67.88
2018-12-25T12:40:14.795Z,68.63
2018-12-25T12:41:14.784Z,68.29
2018-12-25T12:42:14.773Z,68.05
2018-12-25T12:43:14.763Z,67.88
2018-12-25T12:44:14.769Z,67.95
2018-12-25T12:45:14.737Z,66.86
2018-12-25T12:46:14.725Z,66.14
2018-12-25T12:47:14.713Z,65.22
2018-12-25T12:48:14.700Z,63.72
2018-12-25T12:49:14.689Z,64.88
2018-12-25T12:50:14.696Z,63.72
2018-12-25T12:51:14.666Z,64.85
2018-12-25T12:52:14.654Z,62.51
2018-12-25T12:53:14.644Z,62.51
2018-12-25T12:54:14.632Z,60.37
2018-12-25T12:55:14.641Z,60.68
2018-12-25T12:56:14.615Z,58.55
2018-12-25T12:57:14.596Z,57.97
2018-12-25T12:58:14.582Z,58.14
2018-12-25T12:59:14.570Z,57.43
2018-12-25T13:00:14.558Z,57.66
2018-12-25T13:01:14.566Z,58.63
2018-12-25T13:02:14.535Z,59.41
2018-12-25T13:03:14.523Z,59.22
2018-12-25T13:04:14.511Z,58.94
2018-12-25T13:05:14.504Z,59.76
2018-12-25T13:06:14.511Z,60.33
2018-12-25T13:07:14.479Z,61.74
2018-12-25T13:08:14.466Z,62.33
2018-12-25T13:09:14.455Z,61.45
2018-12-25T13:10:14.445Z,61.69
2018-12-25T13:11:14.452Z,61.92
2018-12-25T13:12:14.418Z,62.05
2018-12-25T13:13:14.411Z,62.36
2018-12-25T13:14:14.398Z,62.77
2018-12-25T13:15:14.384Z,61.82
2018-12-25T13:16:14.392Z,61.92
2018-12-25T13:17:14.359Z,62.43
2018-12-25T13:18:14.350Z,62.59
2018-12-25T13:19:14.338Z,63.85
2018-12-25T13:20:14.326Z,63.78
2018-12-25T13:21:14.336Z,64.43
2018-12-25T13:22:14.303Z,65.89
2018-12-25T13:23:14.293Z,65.69
2018-12-25T13:24:14.279Z,66.75
2018-12-25T13:25:14.266Z,67.40
2018-12-25T13:26:14.254Z,68.08
2018-12-25T13:27:14.261Z,68.02
2018-12-25T13:28:14.230Z,67.81
2018-12-25T13:29:14.219Z,67.91
2018-12-25T13:30:14.208Z,68.02
2018-12-25T13:31:14.193Z,68.84
2018-12-25T13:32:14.202Z,68.53
2018-12-25T13:33:14.171Z,68.53
2018-12-25T13:34:14.159Z,67.81
2018-12-25T13:35:14.150Z,68.12
2018-12-25T13:36:14.137Z,67.94
2018-12-25T13:37:14.149Z,68.46
2018-12-25T13:38:14.113Z,68.56
2018-12-25T13:39:14.100Z,68.46
2018-12-25T13:40:14.173Z,69.31
2018-12-25T13:41:14.077Z,69.11
2018-12-25T13:42:14.067Z,68.70
2018-12-25T13:43:14.072Z,69.62
2018-12-25T13:44:14.042Z,68.73
2018-12-25T13:45:14.034Z,70.68
2018-12-25T13:46:14.019Z,71.30
2018-12-25T13:47:14.009Z,70.41
2018-12-25T13:48:14.014Z,71.03
2018-12-25T13:49:13.984Z,70.31
2018-12-25T13:50:13.974Z,71.13
2018-12-25T13:51:13.963Z,70.41
2018-12-25T13:52:13.953Z,70.86
2018-12-25T13:53:13.960Z,70.44
2018-12-25T13:54:13.926Z,70.86
2018-12-25T13:55:13.917Z,70.96
2018-12-25T13:56:13.905Z,72.30
2018-12-25T13:57:13.894Z,71.13
2018-12-25T13:58:13.882Z,71.99
2018-12-25T13:59:13.887Z,71.78
2018-12-25T14:00:13.857Z,72.09
2018-12-25T14:01:13.847Z,72.09
2018-12-25T14:02:13.835Z,71.89
2018-12-25T14:03:13.821Z,71.89
2018-12-25T14:04:13.835Z,72.50
2018-12-25T14:05:13.800Z,72.09
2018-12-25T14:06:13.788Z,71.89
2018-12-25T14:07:13.778Z,72.40
2018-12-25T14:08:13.765Z,71.99
2018-12-25T14:09:13.798Z,71.37
2018-12-25T14:10:13.742Z,71.99
2018-12-25T14:11:13.730Z,72.09
2018-12-25T14:12:13.718Z,71.61
2018-12-25T14:13:13.708Z,71.71
2018-12-25T14:14:13.696Z,72.44
2018-12-25T14:15:13.701Z,71.92
2018-12-25T14:16:13.671Z,71.92
2018-12-25T14:17:13.660Z,72.33
2018-12-25T14:18:13.649Z,72.33
2018-12-25T14:19:13.638Z,72.44
2018-12-25T14:20:13.645Z,72.23
2018-12-25T14:21:13.615Z,72.74
2018-12-25T14:22:13.602Z,72.33
2018-12-25T14:23:13.592Z,72.74
2018-12-25T14:24:13.621Z,72.33
2018-12-25T14:25:13.567Z,72.33
2018-12-25T14:26:13.556Z,72.44
2018-12-25T14:27:13.553Z,72.57
2018-12-25T14:28:13.532Z,73.09
2018-12-25T14:29:13.523Z,72.57
2018-12-25T14:30:13.530Z,72.47
2018-12-25T14:31:13.499Z,72.99
2018-12-25T14:32:13.487Z,74.22
2018-12-25T14:33:13.476Z,73.57
2018-12-25T14:34:13.470Z,72.85
2018-12-25T14:35:13.470Z,71.81
2018-12-25T14:36:13.438Z,72.85
2018-12-25T14:37:13.431Z,72.44
2018-12-25T14:38:13.418Z,71.61
2018-12-25T14:39:13.404Z,72.44
2018-12-25T14:40:13.437Z,72.33
2018-12-25T14:41:13.382Z,72.33
2018-12-25T14:42:13.370Z,72.88
2018-12-25T14:43:13.357Z,73.19
2018-12-25T14:44:13.346Z,73.02
2018-12-25T14:45:13.334Z,72.99
2018-12-25T14:46:13.340Z,72.99
2018-12-25T14:47:13.311Z,73.50
2018-12-25T14:48:13.300Z,73.39
2018-12-25T14:49:13.289Z,73.43
2018-12-25T14:50:13.275Z,73.54
2018-12-25T14:51:13.284Z,74.46
2018-12-25T14:52:13.253Z,73.33
2018-12-25T14:53:19.756Z,73.74
2018-12-25T14:54:14.226Z,74.26
2018-12-25T14:55:13.215Z,74.26
2018-12-25T14:56:13.229Z,73.22
2018-12-25T14:57:13.192Z,73.74
2018-12-25T14:58:13.184Z,73.33
2018-12-25T14:59:13.186Z,74.26
2018-12-25T15:00:13.157Z,74.15
2018-12-25T15:01:13.145Z,74.15
2018-12-25T15:02:13.158Z,74.67
2018-12-25T15:03:13.131Z,74.36
2018-12-25T15:04:13.110Z,74.71
2018-12-25T15:05:13.098Z,74.50
2018-12-25T15:06:13.087Z,74.40
2018-12-25T15:07:13.092Z,75.01
2018-12-25T15:08:13.064Z,75.43
2018-12-25T15:09:13.049Z,75.22
2018-12-25T15:10:13.046Z,75.26
2018-12-25T15:11:13.026Z,74.81
2018-12-25T15:12:13.031Z,75.43
2018-12-25T15:13:13.002Z,75.22
2018-12-25T15:14:12.990Z,74.81
2018-12-25T15:15:12.979Z,74.71
2018-12-25T15:16:12.967Z,75.63
2018-12-25T15:17:13.077Z,75.36
2018-12-25T15:18:12.943Z,75.57
2018-12-25T15:19:12.931Z,75.74
2018-12-25T15:20:12.920Z,75.22
2018-12-25T15:21:12.908Z,76.05
2018-12-25T15:22:12.896Z,75.36
2018-12-25T15:23:12.904Z,75.46
2018-12-25T15:24:12.872Z,75.26
2018-12-25T15:25:12.869Z,75.67
2018-12-25T15:26:12.847Z,75.15
2018-12-25T15:27:12.834Z,75.57
2018-12-25T15:28:12.841Z,75.36
2018-12-25T15:29:12.812Z,75.67
2018-12-25T15:30:12.802Z,75.67
2018-12-25T15:31:12.797Z,75.15
2018-12-25T15:32:12.776Z,75.26
2018-12-25T15:33:12.787Z,75.88
2018-12-25T15:34:12.754Z,76.18
2018-12-25T15:35:12.741Z,76.18
2018-12-25T15:36:12.732Z,76.29
2018-12-25T15:37:12.718Z,77.12
2018-12-25T15:38:12.729Z,76.81
2018-12-25T15:39:12.695Z,76.60
2018-12-25T15:40:12.684Z,76.60
2018-12-25T15:41:12.673Z,76.60
2018-12-25T15:42:12.671Z,75.46
2018-12-25T15:43:12.647Z,77.12
2018-12-25T15:44:12.654Z,76.81
2018-12-25T15:45:12.624Z,76.91
2018-12-25T15:46:12.613Z,76.70
2018-12-25T15:47:12.600Z,76.70
2018-12-25T15:48:12.589Z,76.29
2018-12-25T15:49:12.594Z,76.39
2018-12-25T15:50:12.565Z,76.50
2018-12-25T15:51:12.554Z,76.81
2018-12-25T15:52:12.540Z,76.91
2018-12-25T15:53:12.531Z,76.29
2018-12-25T15:54:12.542Z,76.09
2018-12-25T15:55:12.509Z,76.60
2018-12-25T15:56:12.496Z,76.50
2018-12-25T15:57:12.481Z,75.15
2018-12-25T15:58:12.470Z,76.39
2018-12-25T15:59:12.458Z,76.29
2018-12-25T16:00:12.466Z,77.33
2018-12-25T16:01:12.434Z,77.64
2018-12-25T16:02:12.423Z,74.71
2018-12-25T16:03:12.411Z,74.95
2018-12-25T16:04:12.399Z,74.43
2018-12-25T16:05:12.427Z,75.15
2018-12-25T16:06:12.377Z,75.05
2018-12-25T16:07:12.364Z,75.36
2018-12-25T16:08:12.354Z,75.98
2018-12-25T16:09:12.341Z,75.46
2018-12-25T16:10:12.328Z,75.46
2018-12-25T16:11:12.335Z,75.46
2018-12-25T16:12:12.302Z,75.57
2018-12-25T16:13:12.291Z,75.88
2018-12-25T16:14:12.279Z,75.46
2018-12-25T16:15:12.269Z,75.29
2018-12-25T16:16:12.274Z,76.18
2018-12-25T16:17:12.247Z,75.60
2018-12-25T16:18:12.232Z,76.32
2018-12-25T16:19:12.221Z,76.84
2018-12-25T16:20:12.213Z,76.74
2018-12-25T16:21:12.236Z,76.74
2018-12-25T16:22:12.190Z,75.50
2018-12-25T16:23:12.175Z,75.91
2018-12-25T16:24:12.163Z,76.64
2018-12-25T16:25:12.150Z,76.74
2018-12-25T16:26:12.137Z,76.74
2018-12-25T16:27:12.146Z,75.60
2018-12-25T16:28:12.113Z,76.64
2018-12-25T16:29:12.106Z,76.84
2018-12-25T16:30:12.089Z,76.15
2018-12-25T16:31:12.083Z,76.95
2018-12-25T16:32:12.808Z,75.81
2018-12-25T16:33:12.053Z,75.91
2018-12-25T16:34:12.043Z,76.22
2018-12-25T16:35:12.029Z,76.64
2018-12-25T16:36:12.019Z,76.64
2018-12-25T16:37:12.027Z,76.26
2018-12-25T16:38:11.994Z,76.36
2018-12-25T16:39:11.982Z,75.84
2018-12-25T16:40:11.969Z,76.67
2018-12-25T16:41:11.957Z,76.57
2018-12-25T16:42:11.968Z,75.84
2018-12-25T16:43:11.934Z,76.46
2018-12-25T16:44:11.923Z,76.36
2018-12-25T16:45:11.910Z,76.26
2018-12-25T16:46:11.899Z,76.15
2018-12-25T16:47:11.885Z,76.88
2018-12-25T16:48:11.893Z,77.81
2018-12-25T16:49:11.861Z,77.50
2018-12-25T16:50:11.850Z,76.88
2018-12-25T16:51:11.837Z,76.78
2018-12-25T16:52:11.825Z,76.98
2018-12-25T16:53:11.833Z,76.57
2018-12-25T17:08:24.977Z,78.29
2018-12-25T17:09:25.009Z,76.95
2018-12-25T17:10:24.940Z,76.01
2018-12-25T17:11:24.934Z,75.29
2018-12-25T17:12:24.917Z,76.12
2018-12-25T17:13:24.907Z,75.19
2018-12-25T17:14:24.911Z,74.50
2018-12-25T17:15:24.881Z,74.91
2018-12-25T17:16:24.870Z,75.53
2018-12-25T17:17:24.858Z,75.53
2018-12-25T17:18:24.851Z,75.43
2018-12-25T17:19:24.853Z,75.22
2018-12-25T17:20:24.827Z,76.15
2018-12-25T17:21:24.814Z,75.63
2018-12-25T17:22:24.804Z,76.15
2018-12-25T17:23:24.791Z,75.22
2018-12-25T17:24:24.800Z,75.63
2018-12-25T17:25:24.766Z,75.36
2018-12-25T17:26:24.754Z,76.05
2018-12-25T17:27:24.746Z,75.88
2018-12-25T17:28:27.837Z,75.63
2018-12-25T17:29:24.757Z,75.32
2018-12-25T17:30:24.706Z,75.98
2018-12-25T17:31:24.694Z,75.78
2018-12-25T17:32:24.682Z,75.36
2018-12-25T17:33:24.673Z,76.15
2018-12-25T17:34:24.658Z,75.78
2018-12-25T17:35:24.666Z,75.78
2018-12-25T17:36:24.642Z,75.88
2018-12-25T17:37:24.624Z,75.57
2018-12-25T17:38:24.612Z,76.29
2018-12-25T17:39:24.605Z,75.98
2018-12-25T17:40:24.608Z,76.09
2018-12-25T17:41:24.577Z,75.98
2018-12-25T17:42:24.567Z,75.98
2018-12-25T17:43:24.554Z,75.98
2018-12-25T17:44:24.541Z,75.98
2018-12-25T17:45:24.559Z,76.09
2018-12-25T17:46:24.520Z,76.29
2018-12-25T17:47:24.516Z,76.81
2018-12-25T17:48:24.499Z,77.01
2018-12-25T17:49:24.486Z,76.50
2018-12-25T17:50:24.473Z,76.91
2018-12-25T17:51:24.483Z,76.50
2018-12-25T17:52:24.455Z,75.98
2018-12-25T17:53:24.442Z,76.50
2018-12-25T17:54:24.431Z,76.91
2018-12-25T17:55:24.418Z,76.61
2018-12-25T17:56:24.427Z,77.43
2018-12-25T17:57:24.394Z,77.22
2018-12-25T17:58:24.385Z,77.36
2018-12-25T17:59:24.369Z,77.22
2018-12-25T18:00:24.359Z,77.78
2018-12-25T18:01:24.366Z,77.88
2018-12-25T18:02:24.337Z,77.67
2018-12-25T18:03:24.324Z,77.98
2018-12-25T18:04:24.314Z,78.09
2018-12-25T18:05:24.300Z,78.05
2018-12-25T18:06:24.308Z,78.19
2018-12-25T18:07:24.281Z,78.30
2018-12-25T18:08:24.267Z,77.74
2018-12-25T18:09:24.255Z,77.33
2018-12-25T18:10:24.245Z,77.57
2018-12-25T18:11:24.271Z,77.43
2018-12-25T18:12:24.221Z,77.15
2018-12-25T18:13:24.210Z,77.88
2018-12-25T18:14:24.198Z,77.67
2018-12-25T18:15:24.189Z,77.84
2018-12-25T18:16:24.194Z,77.57
2018-12-25T18:17:24.164Z,77.53
2018-12-25T18:18:24.151Z,77.67
2018-12-25T18:19:24.140Z,77.88
2018-12-25T18:20:24.133Z,77.84
2018-12-25T18:21:24.137Z,77.36
2018-12-25T18:22:26.130Z,76.95
2018-12-25T18:23:24.096Z,77.26
2018-12-25T18:24:24.084Z,77.67
2018-12-25T18:25:24.071Z,77.33
2018-12-25T18:26:24.077Z,77.22
2018-12-25T18:27:24.047Z,77.67
2018-12-25T18:28:24.036Z,77.05
2018-12-25T18:29:24.025Z,77.47
2018-12-25T18:30:24.011Z,77.26
2018-12-25T18:31:24.024Z,77.67
2018-12-25T18:32:23.986Z,77.15
2018-12-25T18:33:23.978Z,76.84
2018-12-25T18:34:23.965Z,77.05
2018-12-25T18:35:23.951Z,77.22
2018-12-25T18:36:23.943Z,77.36
2018-12-25T18:37:23.952Z,77.43
2018-12-25T18:38:23.923Z,77.36
2018-12-25T18:39:23.906Z,77.26
2018-12-25T18:40:23.895Z,77.36
2018-12-25T18:41:23.885Z,77.67
2018-12-25T18:42:23.894Z,77.26
2018-12-25T18:43:23.860Z,77.67
2018-12-25T18:44:23.853Z,77.98
2018-12-25T18:45:23.837Z,77.47
2018-12-25T18:46:23.825Z,77.05
2018-12-25T18:47:23.831Z,77.36
2018-12-25T18:48:23.803Z,75.92
2018-12-25T18:49:23.794Z,77.36
2018-12-25T18:50:23.778Z,77.47
2018-12-25T18:51:23.768Z,76.74
2018-12-25T18:52:23.774Z,77.36
2018-12-25T18:53:23.746Z,76.64
2018-12-25T18:54:27.846Z,77.40
2018-12-25T18:55:23.722Z,77.50
2018-12-25T18:56:23.712Z,77.19
2018-12-25T18:57:23.718Z,77.50
2018-12-25T18:58:23.687Z,77.47
2018-12-25T18:59:23.677Z,77.09
2018-12-25T19:00:23.663Z,77.81
2018-12-25T19:01:23.658Z,77.78
2018-12-25T19:02:23.696Z,77.61
2018-12-25T19:03:23.631Z,77.61
2018-12-25T19:04:23.619Z,78.09
2018-12-25T19:05:23.608Z,78.12
2018-12-25T19:06:23.595Z,77.71
2018-12-25T19:07:23.585Z,77.92
2018-12-25T19:08:23.592Z,77.09
2018-12-25T19:09:23.562Z,77.50
2018-12-25T19:10:23.550Z,77.64
2018-12-25T19:11:23.542Z,77.95
2018-12-25T19:12:23.531Z,77.81
2018-12-25T19:13:23.533Z,77.81
2018-12-25T19:14:23.506Z,78.54
2018-12-25T19:15:23.494Z,78.44
2018-12-25T19:16:23.483Z,78.33
2018-12-25T19:17:23.471Z,78.64
2018-12-25T19:18:23.505Z,78.02
2018-12-25T19:19:23.448Z,78.02
2018-12-25T19:20:23.438Z,78.23
2018-12-25T19:21:23.426Z,77.71
2018-12-25T19:22:23.415Z,77.50
2018-12-25T19:23:23.405Z,77.57
2018-12-25T19:24:23.410Z,77.71
2018-12-25T19:25:23.381Z,77.92
2018-12-25T19:26:23.369Z,77.61
2018-12-25T19:27:23.359Z,77.71
2018-12-25T19:28:23.346Z,77.92
2018-12-25T19:29:23.353Z,78.33
2018-12-25T19:30:23.326Z,78.12
2018-12-25T19:31:23.317Z,78.33
2018-12-25T19:32:23.303Z,77.78
2018-12-25T19:33:23.309Z,77.71
2018-12-25T19:34:23.283Z,77.92
2018-12-25T19:35:23.266Z,77.92
2018-12-25T19:36:23.255Z,77.92
2018-12-25T19:37:23.245Z,78.12
2018-12-25T19:38:23.257Z,77.81
2018-12-25T19:39:23.223Z,77.81
2018-12-25T19:40:23.211Z,77.92
2018-12-25T19:41:23.199Z,78.02
2018-12-25T19:42:23.188Z,78.44
2018-12-25T19:43:23.176Z,77.92
2018-12-25T19:44:23.190Z,78.12
2018-12-25T19:45:23.154Z,77.64
2018-12-25T19:46:23.143Z,78.02
2018-12-25T19:47:23.131Z,77.92
2018-12-25T19:48:23.119Z,78.64
2018-12-25T19:49:23.125Z,78.02
2018-12-25T19:50:24.428Z,78.33
2018-12-25T19:51:23.084Z,78.33
2018-12-25T19:52:23.075Z,77.40
2018-12-25T19:53:23.064Z,78.02
2018-12-25T19:54:23.078Z,78.33
2018-12-25T19:55:23.041Z,77.92
2018-12-25T19:56:23.045Z,78.44
2018-12-25T19:57:23.019Z,78.33
2018-12-25T19:58:23.008Z,77.92
2018-12-25T19:59:22.997Z,77.92
2018-12-25T20:00:22.999Z,77.81
2018-12-25T20:01:22.972Z,77.44
2018-12-25T20:02:22.960Z,78.16
2018-12-25T20:03:22.948Z,78.02
2018-12-25T20:04:22.935Z,77.75
2018-12-25T20:05:24.181Z,77.95
2018-12-25T20:06:22.914Z,77.85
2018-12-25T20:07:22.902Z,77.95
2018-12-25T20:08:22.892Z,78.27
2018-12-25T20:09:22.880Z,78.16
2018-12-25T20:10:22.888Z,78.16
2018-12-25T20:11:22.857Z,78.47
2018-12-25T20:12:22.856Z,78.16
2018-12-25T20:13:22.838Z,78.37
2018-12-25T20:14:22.827Z,78.30
2018-12-25T20:15:22.832Z,78.61
2018-12-25T20:16:22.807Z,78.30
2018-12-25T20:17:22.793Z,78.41
2018-12-25T20:18:22.781Z,78.92
2018-12-25T20:19:22.771Z,78.72
2018-12-25T20:20:22.781Z,78.92
2018-12-25T20:21:22.745Z,78.82
2018-12-25T20:22:22.739Z,79.03
2018-12-25T20:23:22.725Z,78.82
2018-12-25T20:24:22.713Z,78.72
2018-12-25T20:25:22.701Z,78.92
2018-12-25T20:26:22.718Z,78.92
2018-12-25T20:27:22.676Z,78.92
2018-12-25T20:28:22.665Z,79.24
2018-12-25T20:29:22.652Z,78.92
2018-12-25T20:30:22.643Z,79.24
2018-12-25T20:31:22.650Z,79.17
2018-12-25T20:32:22.619Z,79.17
2018-12-25T20:33:22.607Z,79.10
2018-12-25T20:34:22.595Z,78.86
2018-12-25T20:35:22.587Z,80.24
2018-12-25T20:36:22.590Z,79.83
2018-12-25T20:37:22.562Z,80.24
2018-12-25T20:38:22.551Z,79.93
2018-12-25T20:39:22.539Z,79.83
2018-12-25T20:40:22.530Z,79.20
2018-12-25T20:41:22.558Z,80.18
2018-12-25T20:42:22.505Z,80.07
2018-12-25T20:43:22.501Z,79.55
2018-12-25T20:44:22.483Z,79.97
2018-12-25T20:45:22.473Z,80.49
2018-12-25T20:46:22.463Z,80.07
2018-12-25T20:47:22.471Z,80.42
2018-12-25T20:48:22.542Z,80.63
2018-12-25T20:49:22.425Z,80.38
2018-12-25T20:50:22.412Z,80.63
2018-12-25T20:51:22.402Z,81.15
2018-12-25T20:52:22.411Z,81.25
2018-12-25T20:53:22.379Z,81.25
2018-12-25T20:54:22.367Z,80.94
2018-12-25T20:55:22.361Z,81.15
2018-12-25T20:56:22.348Z,81.35
2018-12-25T20:57:22.362Z,81.81
2018-12-25T20:58:22.320Z,81.70
2018-12-25T20:59:22.308Z,82.01
2018-12-25T21:00:22.298Z,82.32
2018-12-25T21:01:22.286Z,82.95
2018-12-25T21:02:22.274Z,83.05
2018-12-25T21:03:22.294Z,82.64
2018-12-25T21:04:22.254Z,83.16
2018-12-25T21:05:22.240Z,82.95
2018-12-25T21:06:22.228Z,83.30
2018-12-25T21:07:22.217Z,83.40
2018-12-25T21:08:22.227Z,83.40
2018-12-25T21:09:22.192Z,83.51
2018-12-25T21:10:22.180Z,83.40
2018-12-25T21:11:22.175Z,83.51
2018-12-25T21:12:22.162Z,83.61
2018-12-25T21:13:22.168Z,83.61
2018-12-25T21:14:22.135Z,83.51
2018-12-25T21:15:22.123Z,83.82
2018-12-25T21:16:22.112Z,84.03
2018-12-25T21:17:22.099Z,84.03
2018-12-25T21:18:22.112Z,84.13
2018-12-25T21:19:22.077Z,84.17
2018-12-25T21:20:22.070Z,83.92
2018-12-25T21:21:22.054Z,84.34
2018-12-25T21:22:22.041Z,84.48
2018-12-25T21:23:22.031Z,84.38
2018-12-25T21:24:22.037Z,84.38
2018-12-25T21:25:22.005Z,84.59
2018-12-25T21:26:21.996Z,84.48
2018-12-25T21:27:21.987Z,84.80
2018-12-25T21:28:21.970Z,85.00
2018-12-25T21:29:21.979Z,85.21
2018-12-25T21:30:21.947Z,85.21
2018-12-25T21:31:21.936Z,85.11
2018-12-25T21:32:21.923Z,84.69
2018-12-25T21:33:21.917Z,84.90
2018-12-25T21:34:21.921Z,84.59
2018-12-25T21:35:21.892Z,85.00
2018-12-25T21:36:21.879Z,84.48
2018-12-25T21:37:21.866Z,85.00
2018-12-25T21:38:21.860Z,84.90
2018-12-25T21:39:21.862Z,84.48
2018-12-25T21:40:21.833Z,84.69
2018-12-25T21:41:21.821Z,84.59
2018-12-25T21:42:21.808Z,85.21
2018-12-25T21:43:21.796Z,85.11
2018-12-25T21:44:21.806Z,85.25
2018-12-25T21:45:21.774Z,84.94
2018-12-25T21:46:21.763Z,85.14
2018-12-25T21:47:21.752Z,85.04
2018-12-25T21:48:21.742Z,84.94
2018-12-25T21:49:21.727Z,85.46
2018-12-25T21:50:21.733Z,85.25
2018-12-25T21:51:21.705Z,85.35
2018-12-25T21:52:21.693Z,84.83
2018-12-25T21:53:23.684Z,84.94
2018-12-25T21:54:21.673Z,85.04
2018-12-25T21:55:21.689Z,85.29
2018-12-25T21:56:21.658Z,85.35
2018-12-25T21:57:21.663Z,85.04
2018-12-25T21:58:21.630Z,84.83
2018-12-25T21:59:21.618Z,84.83
2018-12-25T22:00:21.632Z,85.39
2018-12-25T22:01:21.598Z,85.35
2018-12-25T22:02:21.576Z,85.29
2018-12-25T22:03:21.569Z,85.81
2018-12-25T22:04:21.551Z,85.46
2018-12-25T22:05:21.540Z,85.67
2018-12-25T22:06:21.555Z,85.39
2018-12-25T22:07:21.535Z,86.02
2018-12-25T22:08:21.506Z,85.39
2018-12-25T22:09:21.495Z,85.81
2018-12-25T22:10:21.480Z,85.71
2018-12-25T22:11:21.490Z,86.22
2018-12-25T22:12:21.461Z,86.02
2018-12-25T22:13:21.450Z,85.96
2018-12-25T22:14:21.437Z,85.85
2018-12-25T22:15:21.527Z,86.06
2018-12-25T22:16:21.578Z,86.02
2018-12-25T22:17:21.423Z,85.96
2018-12-25T22:18:21.389Z,86.06
2018-12-25T22:19:21.378Z,85.96
2018-12-25T22:20:21.370Z,86.16
2018-12-25T22:21:21.357Z,86.37
2018-12-25T22:22:21.364Z,86.12
2018-12-25T22:23:21.334Z,86.27
2018-12-25T22:24:21.321Z,86.27
2018-12-25T22:25:27.068Z,86.16
2018-12-25T22:26:22.296Z,86.27
2018-12-25T22:27:21.307Z,86.16
2018-12-25T22:28:21.350Z,85.96
2018-12-25T22:29:21.263Z,85.96
2018-12-25T22:30:21.253Z,85.64
2018-12-25T22:31:21.240Z,86.47
2018-12-25T22:32:21.314Z,86.16
2018-12-25T22:33:21.220Z,86.16
2018-12-25T22:34:21.208Z,85.74
2018-12-25T22:35:21.194Z,85.74
2018-12-25T22:36:21.185Z,85.96
2018-12-25T22:37:21.173Z,86.37
2018-12-25T22:38:21.181Z,86.47
2018-12-25T22:39:21.150Z,86.27
2018-12-25T22:40:21.140Z,86.37
2018-12-25T22:41:21.130Z,86.61
2018-12-25T22:42:21.119Z,86.27
2018-12-25T22:43:21.131Z,86.58
2018-12-25T22:44:21.091Z,86.89
2018-12-25T22:45:21.080Z,86.89
2018-12-25T22:46:21.069Z,87.04
2018-12-25T22:47:21.060Z,86.93
2018-12-25T22:48:21.067Z,86.99
2018-12-25T22:49:21.034Z,86.41
2018-12-25T22:50:21.032Z,86.30
2018-12-25T22:51:21.017Z,86.93
2018-12-25T22:52:21.006Z,86.93
2018-12-25T22:53:21.009Z,87.28
2018-12-25T22:54:20.982Z,86.83
2018-12-25T22:55:20.970Z,87.04
2018-12-25T22:56:20.978Z,87.04
2018-12-25T22:57:20.944Z,87.24
2018-12-25T22:58:20.952Z,87.28
2018-12-25T22:59:20.921Z,87.97
2018-12-25T23:00:20.927Z,88.22
2018-12-25T23:01:20.897Z,88.18
2018-12-25T23:02:20.886Z,87.39
2018-12-25T23:03:20.897Z,87.91
2018-12-25T23:04:20.866Z,87.76
2018-12-25T23:05:20.851Z,87.97
2018-12-25T23:06:20.843Z,87.70
2018-12-25T23:07:20.828Z,87.60
2018-12-25T23:08:20.817Z,87.60
2018-12-25T23:09:20.825Z,88.75
2018-12-25T23:10:20.794Z,88.32
2018-12-25T23:11:20.782Z,88.22
2018-12-25T23:12:20.772Z,87.39
2018-12-25T23:13:20.768Z,88.16
2018-12-25T23:14:20.767Z,88.85
2018-12-25T23:15:20.739Z,88.99
2018-12-25T23:16:20.726Z,89.31
2018-12-25T23:17:20.714Z,88.57
2018-12-25T23:18:20.703Z,88.68
2018-12-25T23:19:20.736Z,88.68
2018-12-25T23:20:28.475Z,89.10
2018-12-25T23:21:21.667Z,89.41
2018-12-25T23:22:20.657Z,89.14
2018-12-25T23:23:20.650Z,89.20
2018-12-25T23:24:20.693Z,89.20
2018-12-25T23:25:20.641Z,89.24
2018-12-25T23:26:20.610Z,89.45
2018-12-25T23:27:20.600Z,89.24
2018-12-25T23:28:20.588Z,89.20
2018-12-25T23:29:20.586Z,89.56
2018-12-25T23:30:20.583Z,89.45
